Time;durP1;ratioP1;P1;durP2;ratioP2;P2;SDS_P1;SDS_P2;PMS_P1;PMS_P2;Temp;Humidity;BMP_temperature;BMP_pressure;BME280_temperature;BME280_humidity;BME280_pressure;Samples;Min_cycle;Max_cycle;Signal;HPM_P1;HPM_P2
2022/10/27 00:00:43;;;;;;;;;2.50;2.00;;;;;20.40;66.48;-19752.28;4996021;27;46292;-88
2022/10/27 00:03:10;;;;;;;;;3.25;1.75;;;;;20.55;66.65;-19756.13;4980664;28;45628;-87
2022/10/27 00:05:35;;;;;;;;;1.00;1.00;;;;;20.39;66.73;-19752.00;4995776;27;45775;-88
2022/10/27 00:08:01;;;;;;;;;3.75;1.00;;;;;20.50;66.84;-19754.81;4981280;27;47129;-87
2022/10/27 00:10:27;;;;;;;;;1.25;1.25;;;;;20.31;67.12;-19749.88;4986415;27;45546;-87
2022/10/27 00:12:52;;;;;;;;;3.25;1.00;;;;;20.45;66.88;-19753.47;5000589;27;45482;-87
2022/10/27 00:15:18;;;;;;;;;1.25;1.25;;;;;20.45;66.43;-19753.47;4999132;27;45728;-87
2022/10/27 00:17:44;;;;;;;;;1.00;1.00;;;;;20.44;67.01;-19753.34;4966337;28;45539;-87
2022/10/27 00:20:10;;;;;;;;;1.00;1.00;;;;;20.28;66.99;-19748.94;4987037;27;46464;-87
2022/10/27 00:22:36;;;;;;;;;2.25;1.75;;;;;20.43;66.19;-19753.06;4993490;28;45453;-87
2022/10/27 00:25:02;;;;;;;;;1.00;1.00;;;;;20.49;66.29;-19754.53;4992087;27;45478;-87
2022/10/27 00:27:28;;;;;;;;;1.00;1.00;;;;;20.50;66.35;-19754.69;4988883;27;45512;-87
2022/10/27 00:29:53;;;;;;;;;2.25;1.00;;;;;20.27;66.42;-19748.81;4983379;27;46620;-87
2022/10/27 00:32:19;;;;;;;;;1.00;1.00;;;;;20.50;66.58;-19754.81;4976375;28;45475;-87
2022/10/27 00:34:44;;;;;;;;;2.00;1.00;;;;;20.43;66.62;-19753.06;4996925;28;45417;-87
2022/10/27 00:37:10;;;;;;;;;1.00;1.00;;;;;20.48;66.67;-19754.16;4972643;28;45552;-88
2022/10/27 00:39:36;;;;;;;;;1.00;1.00;;;;;20.33;66.08;-19750.41;4994752;27;46147;-87
2022/10/27 00:42:01;;;;;;;;;1.00;1.00;;;;;20.42;66.13;-19752.69;4983875;27;45333;-87
2022/10/27 00:44:37;;;;;;;;;1.00;1.00;;;;;20.44;66.64;-19753.34;4976557;28;45384;-87
2022/10/27 00:47:08;;;;;;;;;1.00;1.00;;;;;20.43;66.57;-19752.94;4988658;27;45717;-88
2022/10/27 00:49:39;;;;;;;;;1.00;1.00;;;;;20.41;66.65;-19752.53;4991209;27;45758;-87
2022/10/27 00:52:28;;;;;;;;;1.00;1.00;;;;;20.38;66.63;-19751.75;4992697;27;45535;-87
2022/10/27 00:54:59;;;;;;;;;0.00;0.00;;;;;20.12;66.29;-19744.81;4992294;27;46021;-87
2022/10/27 00:57:26;;;;;;;;;1.00;1.00;;;;;20.37;66.22;-19751.47;4998431;27;45379;-87
2022/10/27 00:59:52;;;;;;;;;1.00;1.00;;;;;20.32;66.48;-19750.16;4997482;27;47061;-87
2022/10/27 01:02:17;;;;;;;;;2.50;1.00;;;;;20.28;66.27;-19748.94;4991154;27;45537;-87
2022/10/27 01:04:50;;;;;;;;;2.00;1.00;;;;;20.26;66.23;-19748.53;4986707;27;46789;-87
2022/10/27 01:07:18;;;;;;;;;1.00;1.00;;;;;20.26;66.57;-19748.53;4990014;27;45583;-87
2022/10/27 01:09:45;;;;;;;;;1.00;1.00;;;;;19.83;66.67;-19737.34;4977944;27;47132;-87
2022/10/27 01:12:11;;;;;;;;;1.00;0.50;;;;;20.11;66.15;-19744.53;4969640;28;46743;-87
2022/10/27 01:14:36;;;;;;;;;1.00;1.00;;;;;20.26;66.35;-19748.41;4991513;27;45497;-88
2022/10/27 01:17:21;;;;;;;;;3.00;1.00;;;;;20.23;66.77;-19747.88;4983855;27;45527;-87
2022/10/27 01:20:14;;;;;;;;;1.25;1.25;;;;;20.21;66.38;-19747.34;4992039;27;45535;-87
2022/10/27 01:22:44;;;;;;;;;1.00;1.00;;;;;20.21;66.75;-19747.22;4987719;27;45598;-87
2022/10/27 01:25:28;;;;;;;;;0.75;0.75;;;;;20.21;66.61;-19747.34;4977652;27;47275;-87
2022/10/27 01:28:15;;;;;;;;;1.25;1.00;;;;;20.20;66.58;-19746.94;4980677;28;45610;-87
2022/10/27 01:31:12;;;;;;;;;0.00;0.00;;;;;20.04;66.94;-19742.81;4982986;27;45719;-87
2022/10/27 01:33:47;;;;;;;;;1.00;1.00;;;;;20.08;67.05;-19743.75;4976955;27;45499;-87
2022/10/27 01:36:25;;;;;;;;;1.25;1.00;;;;;19.84;66.34;-19737.59;4998049;27;45634;-87
2022/10/27 01:39:10;;;;;;;;;1.00;1.00;;;;;20.07;66.71;-19743.47;4988008;27;45602;-87
2022/10/27 01:41:46;;;;;;;;;1.00;1.00;;;;;20.05;66.81;-19742.94;4980333;27;47022;-87
2022/10/27 01:44:26;;;;;;;;;1.00;1.00;;;;;20.02;67.17;-19742.41;4990946;28;45602;-87
2022/10/27 01:46:54;;;;;;;;;1.00;1.00;;;;;19.84;67.00;-19737.59;4985679;27;45566;-87
2022/10/27 01:49:20;;;;;;;;;0.50;0.50;;;;;19.95;66.76;-19740.53;4987706;27;46503;-87
2022/10/27 01:51:48;;;;;;;;;1.25;1.00;;;;;19.92;66.90;-19739.75;4994448;27;46161;-87
2022/10/27 01:54:14;;;;;;;;;1.50;1.00;;;;;19.82;67.45;-19737.22;4984395;28;46586;-87
2022/10/27 01:56:46;;;;;;;;;0.75;0.75;;;;;19.71;66.92;-19734.13;4986591;27;45651;-87
2022/10/27 01:59:30;;;;;;;;;1.00;1.00;;;;;19.88;67.21;-19738.53;4989824;27;45457;-87
2022/10/27 02:02:09;;;;;;;;;3.00;1.75;;;;;19.68;67.52;-19733.34;4982374;28;47431;-87
2022/10/27 02:05:04;;;;;;;;;1.00;1.00;;;;;19.64;67.24;-19732.28;4970856;28;45445;-87
2022/10/27 02:07:58;;;;;;;;;2.00;2.00;;;;;19.63;67.54;-19732.13;5004857;28;45428;-78
2022/10/27 02:10:33;;;;;;;;;1.00;1.00;;;;;19.82;67.37;-19737.06;4994782;28;45561;-78
2022/10/27 02:12:59;;;;;;;;;1.50;0.25;;;;;19.79;67.73;-19736.28;4990268;28;46479;-79
2022/10/27 02:15:39;;;;;;;;;1.50;1.50;;;;;19.67;67.18;-19733.19;4987598;27;45528;-78
2022/10/27 02:18:09;;;;;;;;;1.00;1.00;;;;;19.74;67.20;-19734.94;4986842;27;45888;-79
2022/10/27 02:20:39;;;;;;;;;2.00;1.00;;;;;19.74;67.20;-19734.94;5000001;27;45386;-79
2022/10/27 02:23:07;;;;;;;;;1.00;1.00;;;;;19.72;67.67;-19734.53;5002034;27;45647;-79
2022/10/27 02:25:55;;;;;;;;;1.50;1.50;;;;;19.69;67.61;-19733.75;4970537;28;45721;-79
2022/10/27 02:28:28;;;;;;;;;1.50;1.00;;;;;19.50;68.01;-19728.66;4983371;28;45565;-78
2022/10/27 02:30:58;;;;;;;;;4.00;1.25;;;;;19.38;67.77;-19725.59;4974166;27;45537;-79
2022/10/27 02:33:25;;;;;;;;;1.00;1.00;;;;;19.29;67.55;-19723.31;4986982;27;46340;-79
2022/10/27 02:35:53;;;;;;;;;4.00;1.00;;;;;19.53;67.88;-19729.47;4979952;28;45722;-79
2022/10/27 02:38:20;;;;;;;;;1.00;1.00;;;;;19.38;68.10;-19725.72;4975775;28;46953;-80
2022/10/27 02:40:46;;;;;;;;;1.00;1.00;;;;;19.51;67.72;-19729.06;4975348;27;45421;-78
2022/10/27 02:43:11;;;;;;;;;1.00;1.00;;;;;19.53;67.89;-19729.59;4977843;28;45500;-79
2022/10/27 02:45:37;;;;;;;;;1.75;1.75;;;;;19.53;68.06;-19729.59;4990982;28;45393;-79
2022/10/27 02:48:04;;;;;;;;;1.50;0.25;;;;;19.27;67.84;-19722.66;4985352;27;45484;-78
2022/10/27 02:50:30;;;;;;;;;1.50;1.50;;;;;19.46;68.03;-19727.59;4996453;28;45486;-78
2022/10/27 02:52:55;;;;;;;;;1.50;1.50;;;;;19.16;67.99;-19719.84;4989354;28;46576;-78
2022/10/27 02:55:21;;;;;;;;;0.75;0.75;;;;;19.48;67.88;-19728.13;5003922;27;45490;-79
2022/10/27 02:57:47;;;;;;;;;1.00;1.00;;;;;19.29;67.44;-19723.31;4982444;28;45464;-78
2022/10/27 03:00:13;;;;;;;;;2.50;1.00;;;;;19.43;68.02;-19726.94;5001760;27;45344;-78
2022/10/27 03:02:38;;;;;;;;;0.75;0.75;;;;;19.50;68.07;-19728.81;4980446;28;47953;-78
2022/10/27 03:05:04;;;;;;;;;2.00;1.00;;;;;19.50;67.71;-19728.66;4994156;28;45309;-79
2022/10/27 03:07:30;;;;;;;;;1.00;1.00;;;;;19.47;67.76;-19727.88;5003627;27;45418;-79
2022/10/27 03:09:56;;;;;;;;;2.50;1.00;;;;;19.32;67.70;-19724.00;4997565;27;45531;-79
2022/10/27 03:12:21;;;;;;;;;2.00;1.00;;;;;19.53;67.30;-19729.59;4997359;27;45464;-79
2022/10/27 03:14:46;;;;;;;;;1.00;1.00;;;;;19.51;67.08;-19728.94;5034620;27;45454;-79
2022/10/27 03:17:12;;;;;;;;;1.00;1.00;;;;;19.52;66.99;-19729.19;5001490;27;45366;-79
2022/10/27 03:19:37;;;;;;;;;2.00;2.00;;;;;19.54;67.41;-19729.72;5001838;27;45318;-79
2022/10/27 03:22:03;;;;;;;;;1.00;1.00;;;;;19.55;67.08;-19730.00;4991408;27;45483;-79
2022/10/27 03:24:28;;;;;;;;;1.75;1.75;;;;;19.48;67.46;-19728.13;5005064;27;45420;-79
2022/10/27 03:26:54;;;;;;;;;1.00;1.00;;;;;19.52;67.26;-19729.19;4998602;27;45500;-79
2022/10/27 03:29:20;;;;;;;;;2.00;1.75;;;;;19.51;67.47;-19729.06;4998247;27;45523;-79
2022/10/27 03:31:45;;;;;;;;;1.00;1.00;;;;;19.51;66.99;-19728.94;4991035;27;45857;-79
2022/10/27 03:34:11;;;;;;;;;2.00;2.00;;;;;19.48;67.43;-19728.28;5013673;27;45492;-79
2022/10/27 03:36:37;;;;;;;;;1.00;1.00;;;;;19.22;66.80;-19721.47;4975722;27;45361;-79
2022/10/27 03:39:02;;;;;;;;;0.00;0.00;;;;;19.27;66.87;-19722.66;5015248;27;45448;-79
2022/10/27 03:41:28;;;;;;;;;2.25;1.25;;;;;19.44;67.19;-19727.19;4989630;27;46167;-79
2022/10/27 03:43:53;;;;;;;;;1.00;1.00;;;;;19.25;67.33;-19722.13;5008034;27;45438;-79
2022/10/27 03:46:19;;;;;;;;;1.50;1.50;;;;;19.45;66.83;-19727.47;5041244;27;45396;-79
2022/10/27 03:48:45;;;;;;;;;1.75;1.25;;;;;19.41;67.16;-19726.41;5031059;27;45460;-79
2022/10/27 03:51:10;;;;;;;;;1.00;1.00;;;;;19.27;67.02;-19722.78;4972799;27;47707;-78
2022/10/27 03:53:36;;;;;;;;;0.50;0.50;;;;;19.27;66.77;-19722.66;4982256;27;45359;-79
2022/10/27 03:56:02;;;;;;;;;2.00;1.00;;;;;19.44;67.10;-19727.06;4986652;27;45492;-79
2022/10/27 03:58:28;;;;;;;;;1.00;1.00;;;;;19.45;67.13;-19727.34;4963081;28;45475;-78
2022/10/27 04:00:53;;;;;;;;;0.75;0.50;;;;;19.32;66.78;-19724.13;4987488;27;45459;-78
2022/10/27 04:03:19;;;;;;;;;1.50;1.50;;;;;19.26;66.92;-19722.53;4981724;27;45618;-78
2022/10/27 04:05:48;;;;;;;;;1.25;1.25;;;;;19.19;66.60;-19720.78;4999793;27;45512;-79
2022/10/27 04:08:13;;;;;;;;;1.50;1.50;;;;;19.39;66.86;-19726.00;4958493;28;45599;-79
2022/10/27 04:10:39;;;;;;;;;3.00;1.00;;;;;19.30;67.17;-19723.47;4979854;27;46169;-79
2022/10/27 04:13:04;;;;;;;;;3.00;1.75;;;;;19.24;66.53;-19721.84;4970688;28;45568;-79
2022/10/27 04:15:29;;;;;;;;;2.00;1.00;;;;;19.25;67.07;-19722.25;4977546;27;46902;-79
2022/10/27 04:17:57;;;;;;;;;2.00;2.00;;;;;19.47;66.89;-19728.00;4981906;27;45674;-79
2022/10/27 04:20:23;;;;;;;;;2.75;1.00;;;;;19.14;66.61;-19719.31;4978559;27;45581;-78
2022/10/27 04:22:48;;;;;;;;;2.00;2.00;;;;;19.19;66.40;-19720.78;4978255;27;45630;-78
2022/10/27 04:25:14;;;;;;;;;0.75;0.75;;;;;19.43;66.79;-19726.78;4980631;27;46939;-78
2022/10/27 04:27:40;;;;;;;;;2.00;2.00;;;;;19.38;66.71;-19725.72;4978668;28;45542;-78
2022/10/27 04:30:06;;;;;;;;;1.00;1.00;;;;;19.49;66.19;-19728.53;4967215;28;46393;-78
2022/10/27 04:32:31;;;;;;;;;1.50;0.00;;;;;19.22;66.71;-19721.47;4945050;28;47239;-79
2022/10/27 04:34:57;;;;;;;;;2.00;2.00;;;;;19.34;66.29;-19724.66;4989005;27;45281;-79
2022/10/27 04:37:23;;;;;;;;;1.00;1.00;;;;;19.41;66.82;-19726.41;4993526;27;45641;-79
2022/10/27 04:39:49;;;;;;;;;1.75;1.75;;;;;19.51;66.20;-19729.06;4974810;28;45773;-78
2022/10/27 04:42:15;;;;;;;;;5.00;1.00;;;;;19.34;66.10;-19724.53;4991396;27;45434;-79
2022/10/27 04:44:40;;;;;;;;;3.00;2.00;;;;;19.38;66.49;-19725.72;4995180;27;45454;-79
2022/10/27 04:47:05;;;;;;;;;1.50;1.00;;;;;19.32;66.32;-19724.13;4982355;28;45402;-78
2022/10/27 04:49:31;;;;;;;;;1.50;1.50;;;;;19.47;66.50;-19727.88;4989589;27;46957;-79
2022/10/27 04:51:57;;;;;;;;;1.00;1.00;;;;;19.16;66.06;-19719.84;4988950;27;45385;-78
2022/10/27 04:54:22;;;;;;;;;1.00;1.00;;;;;19.17;66.50;-19720.25;4991403;27;46025;-78
2022/10/27 04:56:47;;;;;;;;;3.50;2.00;;;;;19.43;66.60;-19726.94;4986915;28;45468;-79
2022/10/27 04:59:13;;;;;;;;;3.50;2.00;;;;;19.43;66.54;-19726.94;4986237;27;46865;-78
2022/10/27 05:01:39;;;;;;;;;1.50;1.00;;;;;19.27;66.14;-19722.66;4983809;28;45504;-79
2022/10/27 05:04:04;;;;;;;;;1.00;1.00;;;;;19.28;66.10;-19723.06;4985768;27;45267;-79
2022/10/27 05:06:30;;;;;;;;;1.00;1.00;;;;;19.43;66.44;-19726.78;4976585;28;45558;-86
2022/10/27 05:08:55;;;;;;;;;1.00;1.00;;;;;19.25;66.18;-19722.25;5001009;27;46042;-86
2022/10/27 05:11:20;;;;;;;;;3.00;1.75;;;;;19.39;66.04;-19725.88;4989643;27;45830;-87
2022/10/27 05:13:50;;;;;;;;;2.50;2.00;;;;;19.38;66.15;-19725.72;4993500;27;45459;-87
2022/10/27 05:16:16;;;;;;;;;3.50;2.00;;;;;19.19;66.18;-19720.78;4991923;27;45642;-87
2022/10/27 05:18:42;;;;;;;;;3.25;3.00;;;;;19.01;66.30;-19716.00;5005217;27;46017;-87
2022/10/27 05:21:08;;;;;;;;;1.75;1.75;;;;;19.32;66.24;-19724.13;4974014;28;45571;-87
2022/10/27 05:23:33;;;;;;;;;2.25;1.25;;;;;19.29;66.29;-19723.31;4990350;27;45273;-87
2022/10/27 05:25:58;;;;;;;;;2.75;1.00;;;;;19.29;66.75;-19723.31;4991446;27;45352;-87
2022/10/27 05:28:24;;;;;;;;;5.25;2.75;;;;;19.29;66.44;-19723.19;4988609;27;46052;-86
2022/10/27 05:30:49;;;;;;;;;1.25;1.25;;;;;19.29;66.88;-19723.31;4986126;27;45282;-86
2022/10/27 05:33:15;;;;;;;;;2.00;2.00;;;;;18.99;66.17;-19715.44;4988333;27;45380;-87
2022/10/27 05:35:40;;;;;;;;;2.50;1.25;;;;;19.12;66.60;-19718.91;4986750;27;45539;-87
2022/10/27 05:38:06;;;;;;;;;2.00;2.00;;;;;19.03;66.77;-19716.50;4983767;28;46913;-87
2022/10/27 05:40:34;;;;;;;;;0.00;0.00;;;;;19.20;66.56;-19720.94;4980957;27;45562;-86
2022/10/27 05:43:01;;;;;;;;;3.75;2.00;;;;;19.23;66.49;-19721.72;4985070;27;46105;-87
2022/10/27 05:45:26;;;;;;;;;1.00;1.00;;;;;18.70;66.35;-19707.84;4995881;27;45645;-87
2022/10/27 05:47:59;;;;;;;;;2.00;2.00;;;;;19.22;67.03;-19721.47;4994663;27;45330;-87
2022/10/27 05:50:27;;;;;;;;;2.50;2.50;;;;;19.06;66.89;-19717.31;4997725;27;45362;-87
2022/10/27 05:52:52;;;;;;;;;2.00;2.00;;;;;19.27;66.57;-19722.66;4970766;28;45589;-87
2022/10/27 05:55:17;;;;;;;;;2.00;2.00;;;;;19.27;66.46;-19722.66;4983276;27;45388;-87
2022/10/27 05:57:52;;;;;;;;;1.75;1.75;;;;;19.22;66.61;-19721.31;5003723;28;45258;-87
2022/10/27 06:00:17;;;;;;;;;3.00;3.00;;;;;19.32;66.83;-19724.00;4992463;27;45399;-87
2022/10/27 06:02:42;;;;;;;;;2.50;2.50;;;;;19.17;66.37;-19720.25;4977839;28;45767;-86
2022/10/27 06:05:08;;;;;;;;;2.00;2.00;;;;;19.35;66.82;-19724.78;4980928;27;45428;-86
2022/10/27 06:07:33;;;;;;;;;2.25;2.25;;;;;19.33;66.25;-19724.41;4992580;28;45446;-87
2022/10/27 06:09:58;;;;;;;;;3.25;2.75;;;;;19.33;66.31;-19724.25;4990315;28;45848;-86
2022/10/27 06:12:24;;;;;;;;;4.00;2.00;;;;;19.37;66.20;-19725.47;4995452;27;45491;-86
2022/10/27 06:14:49;;;;;;;;;2.00;2.00;;;;;19.38;66.40;-19725.59;4989075;28;45466;-86
2022/10/27 06:17:14;;;;;;;;;3.00;3.00;;;;;19.38;66.52;-19725.59;4989456;28;50739;-86
2022/10/27 06:19:40;;;;;;;;;3.00;3.00;;;;;19.13;66.39;-19719.19;5000961;28;45758;-86
2022/10/27 06:22:05;;;;;;;;;2.75;2.75;;;;;19.23;66.32;-19721.72;4973569;28;45555;-86
2022/10/27 06:24:30;;;;;;;;;2.00;2.00;;;;;19.35;66.89;-19724.94;4990486;27;45559;-86
2022/10/27 06:26:56;;;;;;;;;2.25;2.25;;;;;19.36;66.35;-19725.06;4993365;27;46056;-86
2022/10/27 06:29:21;;;;;;;;;3.00;3.00;;;;;19.17;66.55;-19720.25;4981409;27;47429;-85
2022/10/27 06:31:46;;;;;;;;;2.00;2.00;;;;;19.35;66.76;-19724.78;4970752;28;45598;-86
2022/10/27 06:34:12;;;;;;;;;0.25;0.25;;;;;19.35;66.71;-19724.94;4988118;27;45444;-86
2022/10/27 06:36:37;;;;;;;;;2.50;2.00;;;;;19.12;66.48;-19718.91;4978495;27;45524;-86
2022/10/27 06:39:02;;;;;;;;;2.75;2.75;;;;;19.11;66.18;-19718.66;4971657;28;45559;-87
2022/10/27 06:41:28;;;;;;;;;4.00;2.75;;;;;19.21;66.33;-19721.19;4965523;28;45500;-86
2022/10/27 06:43:53;;;;;;;;;2.25;2.25;;;;;19.25;66.49;-19722.25;4981294;27;45643;-87
2022/10/27 06:46:18;;;;;;;;;3.00;3.00;;;;;19.02;66.47;-19716.13;4966724;28;47607;-86
2022/10/27 06:48:44;;;;;;;;;4.25;2.50;;;;;19.15;67.25;-19719.72;4988653;27;45490;-86
2022/10/27 06:51:09;;;;;;;;;2.50;2.50;;;;;19.18;67.19;-19720.38;4976033;28;46230;-86
2022/10/27 06:53:35;;;;;;;;;2.50;2.00;;;;;19.15;67.01;-19719.72;4986606;27;45559;-87
2022/10/27 06:56:00;;;;;;;;;3.50;3.00;;;;;19.03;66.96;-19716.38;4993740;28;46948;-86
2022/10/27 06:58:25;;;;;;;;;3.25;2.75;;;;;19.15;66.97;-19719.72;4982457;27;46069;-89
2022/10/27 07:00:51;;;;;;;;;3.00;3.00;;;;;18.92;66.76;-19713.59;4948123;28;45512;-87
2022/10/27 07:03:16;;;;;;;;;4.00;3.75;;;;;19.09;66.92;-19718.13;4980563;27;45632;-86
2022/10/27 07:05:42;;;;;;;;;2.00;2.00;;;;;18.87;67.31;-19712.38;4979999;27;45834;-87
2022/10/27 07:08:07;;;;;;;;;2.00;2.00;;;;;19.13;67.32;-19719.19;4977412;27;45511;-85
2022/10/27 07:10:32;;;;;;;;;2.00;2.00;;;;;19.09;67.18;-19718.00;4980440;27;45998;-86
2022/10/27 07:13:00;;;;;;;;;2.25;2.25;;;;;18.93;67.04;-19713.97;4982255;27;45531;-86
2022/10/27 07:15:30;;;;;;;;;2.50;2.50;;;;;19.04;67.01;-19716.66;4979962;27;46096;-87
2022/10/27 07:18:01;;;;;;;;;2.25;2.25;;;;;19.22;67.37;-19721.31;4978904;27;45755;-86
2022/10/27 07:20:29;;;;;;;;;3.25;1.75;;;;;19.24;66.95;-19722.00;4981356;27;45697;-86
2022/10/27 07:22:55;;;;;;;;;4.00;3.00;;;;;19.26;67.01;-19722.41;4989813;27;45515;-87
2022/10/27 07:25:21;;;;;;;;;3.00;3.00;;;;;19.29;67.13;-19723.19;4990351;27;48020;-87
2022/10/27 07:27:52;;;;;;;;;3.00;1.75;;;;;19.34;67.10;-19724.53;4997677;27;45554;-88
2022/10/27 07:30:18;;;;;;;;;3.50;2.50;;;;;19.11;66.54;-19718.66;4996095;27;45340;-88
2022/10/27 07:32:43;;;;;;;;;4.00;3.00;;;;;19.18;66.40;-19720.53;4975271;28;45594;-87
2022/10/27 07:35:09;;;;;;;;;3.25;3.00;;;;;19.46;66.37;-19727.59;4990111;27;47042;-87
2022/10/27 07:37:34;;;;;;;;;4.00;2.50;;;;;19.59;66.30;-19731.19;5005104;28;45391;-81
2022/10/27 07:40:00;;;;;;;;;2.75;2.75;;;;;19.61;66.64;-19731.59;4996035;27;45372;-79
2022/10/27 07:42:25;;;;;;;;;4.25;3.25;;;;;19.33;66.38;-19724.25;4976482;28;45599;-90
2022/10/27 07:44:50;;;;;;;;;1.00;1.00;;;;;19.68;65.91;-19733.34;4989263;27;45463;-90
2022/10/27 07:47:17;;;;;;;;;4.00;4.00;;;;;19.71;65.86;-19734.28;5035450;27;45498;-90
2022/10/27 07:49:42;;;;;;;;;3.25;2.50;;;;;19.69;65.76;-19733.59;5015527;27;45452;-90
2022/10/27 07:52:08;;;;;;;;;2.00;2.00;;;;;19.70;65.75;-19733.88;5069074;27;45456;-91
2022/10/27 07:54:34;;;;;;;;;4.75;3.00;;;;;19.66;65.79;-19732.94;4978578;28;47964;-90
2022/10/27 07:56:59;;;;;;;;;5.00;3.00;;;;;19.53;66.25;-19729.47;4993547;27;45460;-90
2022/10/27 07:59:24;;;;;;;;;3.00;2.00;;;;;19.68;65.68;-19733.47;4990167;27;45480;-89
2022/10/27 08:01:50;;;;;;;;;3.33;2.33;;;;;19.66;65.95;-19732.81;4996294;27;45407;-90
2022/10/27 08:04:15;;;;;;;;;3.00;3.00;;;;;19.72;66.39;-19734.41;4982312;28;47058;-92
2022/10/27 08:06:41;;;;;;;;;3.00;3.00;;;;;19.67;65.70;-19733.06;4978691;28;45876;-76
2022/10/27 08:09:06;;;;;;;;;1.25;1.25;;;;;19.64;66.04;-19732.28;4995647;27;45413;-78
2022/10/27 08:11:32;;;;;;;;;2.75;2.75;;;;;19.77;65.63;-19735.88;4995692;27;45424;-78
2022/10/27 08:13:57;;;;;;;;;2.25;2.25;;;;;19.47;65.65;-19727.88;4995428;27;47062;-77
2022/10/27 08:16:22;;;;;;;;;3.25;3.25;;;;;19.69;65.44;-19733.59;4991070;27;45398;-79
2022/10/27 08:18:48;;;;;;;;;4.67;4.67;;;;;19.74;65.91;-19734.94;5002196;28;45633;-77
2022/10/27 08:21:13;;;;;;;;;3.00;3.00;;;;;19.79;65.55;-19736.41;4989502;27;45459;-79
2022/10/27 08:23:40;;;;;;;;;4.25;3.25;;;;;19.84;65.90;-19737.47;4981710;28;47424;-78
2022/10/27 08:26:06;;;;;;;;;3.25;3.25;;;;;19.85;65.76;-19737.88;4981440;28;45510;-78
2022/10/27 08:28:31;;;;;;;;;4.00;4.00;;;;;19.92;65.65;-19739.75;4997140;27;45361;-78
2022/10/27 08:30:58;;;;;;;;;2.75;2.00;;;;;19.92;65.23;-19739.75;5003866;27;45544;-77
2022/10/27 08:33:23;;;;;;;;;3.75;2.00;;;;;19.92;65.11;-19739.75;4990700;27;46663;-79
2022/10/27 08:35:50;;;;;;;;;4.00;2.75;;;;;19.61;65.22;-19731.72;4985092;28;45457;-79
2022/10/27 08:38:16;;;;;;;;;3.00;3.00;;;;;19.94;64.97;-19740.28;4970216;27;45311;-79
2022/10/27 08:40:57;;;;;;;;;3.25;3.25;;;;;19.98;64.89;-19741.34;4977377;28;45384;-78
2022/10/27 08:43:31;;;;;;;;;4.25;4.25;;;;;20.06;64.99;-19743.22;4995092;27;45440;-79
2022/10/27 08:46:19;;;;;;;;;3.50;3.50;;;;;20.08;65.14;-19743.75;5037532;27;45334;-78
2022/10/27 08:48:46;;;;;;;;;3.75;3.00;;;;;19.87;64.76;-19738.41;4991363;28;45388;-78
2022/10/27 08:51:21;;;;;;;;;1.75;1.75;;;;;19.81;64.82;-19736.81;4995459;28;45445;-78
2022/10/27 08:53:50;;;;;;;;;3.00;3.00;;;;;20.09;64.35;-19744.16;4994033;27;46045;-78
2022/10/27 08:56:16;;;;;;;;;2.00;2.00;;;;;20.22;64.11;-19747.47;4994639;27;45457;-78
2022/10/27 08:58:44;;;;;;;;;5.25;3.00;;;;;20.24;64.43;-19748.16;4975166;27;45434;-78
2022/10/27 09:01:25;;;;;;;;;4.25;2.50;;;;;20.31;64.61;-19749.75;4995184;28;45433;-78
2022/10/27 09:04:05;;;;;;;;;3.25;3.25;;;;;20.44;64.20;-19753.22;4975412;28;47424;-78
2022/10/27 09:06:58;;;;;;;;;3.00;3.00;;;;;20.55;64.22;-19756.00;4994847;28;45377;-89
2022/10/27 09:09:35;;;;;;;;;3.00;3.00;;;;;20.66;63.69;-19758.94;4994818;27;45464;-89
2022/10/27 09:12:19;;;;;;;;;3.25;3.25;;;;;20.73;63.70;-19760.81;4977587;28;45735;-90
2022/10/27 09:15:08;;;;;;;;;4.00;3.00;;;;;20.76;63.53;-19761.47;4974570;28;46861;-90
2022/10/27 09:17:40;;;;;;;;;2.50;2.50;;;;;20.81;63.14;-19762.81;5003594;28;45523;-90
2022/10/27 09:20:22;;;;;;;;;3.00;3.00;;;;;20.85;62.99;-19764.00;4996849;28;45943;-90
2022/10/27 09:22:52;;;;;;;;;2.50;2.50;;;;;20.81;62.85;-19762.94;4995769;28;45571;-90
2022/10/27 09:25:20;;;;;;;;;5.50;3.50;;;;;20.97;62.90;-19766.94;4995219;28;45673;-90
2022/10/27 09:27:50;;;;;;;;;3.75;3.75;;;;;20.99;62.55;-19767.59;4995227;28;45355;-89
2022/10/27 09:30:16;;;;;;;;;6.00;5.00;;;;;20.91;62.68;-19765.34;4995120;28;45419;-89
2022/10/27 09:32:47;;;;;;;;;5.00;5.00;;;;;21.14;62.52;-19771.47;4979215;28;45443;-89
2022/10/27 09:35:23;;;;;;;;;3.25;3.00;;;;;21.21;62.68;-19773.34;4994998;28;45578;-89
2022/10/27 09:37:49;;;;;;;;;3.50;3.50;;;;;21.07;62.63;-19769.59;4994612;28;45372;-90
2022/10/27 09:40:24;;;;;;;;;5.00;3.25;;;;;21.28;62.58;-19775.19;4995157;28;45364;-89
2022/10/27 09:42:52;;;;;;;;;4.50;4.00;;;;;21.42;62.31;-19778.66;4978663;28;45515;-89
2022/10/27 09:45:24;;;;;;;;;2.25;2.25;;;;;21.43;62.04;-19778.94;4994788;28;46432;-89
2022/10/27 09:48:03;;;;;;;;;4.00;3.00;;;;;21.55;62.27;-19782.00;4995033;28;45346;-90
2022/10/27 09:50:39;;;;;;;;;6.50;4.00;;;;;21.53;62.22;-19781.59;4994804;28;45602;-90
2022/10/27 09:53:25;;;;;;;;;4.50;4.00;;;;;21.72;61.81;-19786.50;4978617;28;45688;-90
2022/10/27 09:55:52;;;;;;;;;3.50;3.50;;;;;21.76;61.26;-19787.44;4993926;28;45612;-90
2022/10/27 09:58:19;;;;;;;;;4.00;4.00;;;;;21.68;61.94;-19785.59;4984872;28;45475;-89
2022/10/27 10:00:44;;;;;;;;;4.00;4.00;;;;;21.66;61.78;-19785.06;4973469;28;45441;-90
2022/10/27 10:03:20;;;;;;;;;4.50;4.50;;;;;21.70;61.16;-19785.97;4985210;28;45431;-90
2022/10/27 10:05:56;;;;;;;;;5.50;4.00;;;;;21.92;60.90;-19791.84;4992160;28;47564;-91
2022/10/27 10:08:27;;;;;;;;;4.50;4.00;;;;;21.86;61.18;-19790.25;4994028;28;45420;-91
2022/10/27 10:10:58;;;;;;;;;5.50;4.75;;;;;21.85;60.93;-19789.84;4994602;27;45592;-92
2022/10/27 10:13:25;;;;;;;;;3.00;3.00;;;;;22.01;60.79;-19793.97;4977145;28;45334;-91
2022/10/27 10:16:14;;;;;;;;;4.75;4.75;;;;;22.19;60.84;-19798.75;5066809;27;45542;-91
2022/10/27 10:18:45;;;;;;;;;4.50;3.25;;;;;22.22;60.13;-19799.41;4994554;27;45434;-91
2022/10/27 10:21:13;;;;;;;;;5.00;3.25;;;;;22.16;60.77;-19797.81;4994077;27;45454;-91
2022/10/27 10:23:49;;;;;;;;;5.00;3.50;;;;;22.27;60.69;-19800.88;4994384;28;45260;-91
2022/10/27 10:26:18;;;;;;;;;3.50;3.50;;;;;22.16;60.06;-19797.81;4993804;27;45472;-91
2022/10/27 10:28:45;;;;;;;;;5.75;4.00;;;;;22.42;59.91;-19804.59;4994105;27;45457;-91
2022/10/27 10:31:20;;;;;;;;;4.00;2.50;;;;;22.45;60.09;-19805.41;4993915;27;45449;-88
2022/10/27 10:33:47;;;;;;;;;5.00;4.00;;;;;22.39;60.54;-19803.81;4993972;27;45444;-89
2022/10/27 10:36:25;;;;;;;;;6.00;4.00;;;;;22.45;60.25;-19805.41;4993310;28;46248;-88
2022/10/27 10:38:54;;;;;;;;;10.50;6.00;;;;;22.47;59.95;-19805.94;4975824;28;45484;-89
2022/10/27 10:41:20;;;;;;;;;4.50;3.75;;;;;22.68;60.48;-19811.38;4993645;28;45638;-89
2022/10/27 10:44:05;;;;;;;;;4.75;4.75;;;;;22.59;59.89;-19809.00;4997963;27;45555;-89
2022/10/27 10:46:31;;;;;;;;;3.75;2.50;;;;;22.90;59.47;-19817.09;5029972;27;47784;-89
2022/10/27 10:48:58;;;;;;;;;3.50;2.75;;;;;22.68;60.02;-19811.53;4993290;27;45493;-89
2022/10/27 10:51:28;;;;;;;;;5.50;3.75;;;;;22.95;59.21;-19818.56;5032433;27;45440;-89
2022/10/27 10:54:17;;;;;;;;;7.00;6.50;;;;;23.13;58.80;-19823.09;5005809;27;45309;-89
2022/10/27 10:56:52;;;;;;;;;6.50;5.00;;;;;23.16;59.24;-19824.00;4975613;28;47220;-89
2022/10/27 10:59:21;;;;;;;;;4.25;2.50;;;;;23.27;59.38;-19826.81;4979549;28;45332;-89
2022/10/27 11:01:50;;;;;;;;;4.75;4.00;;;;;23.26;59.02;-19826.53;4993632;27;45516;-89
2022/10/27 11:04:20;;;;;;;;;6.50;5.00;;;;;23.33;59.59;-19828.25;4993331;27;45507;-88
2022/10/27 11:07:20;;;;;;;;;5.50;4.25;;;;;23.29;59.65;-19827.19;4993381;28;46207;-78
2022/10/27 11:09:57;;;;;;;;;5.00;3.75;;;;;23.34;59.46;-19828.53;5033568;28;45558;-77
2022/10/27 11:12:39;;;;;;;;;6.75;6.00;;;;;23.38;58.38;-19829.59;5033233;28;45405;-78
2022/10/27 11:15:19;;;;;;;;;5.00;5.00;;;;;23.35;58.66;-19828.94;5033966;28;45530;-77
2022/10/27 11:17:48;;;;;;;;;4.25;4.25;;;;;23.72;58.84;-19838.34;5033674;28;45353;-78
2022/10/27 11:20:24;;;;;;;;;6.00;4.25;;;;;24.14;58.33;-19849.38;5006635;28;45578;-78
2022/10/27 11:22:51;;;;;;;;;5.75;5.75;;;;;25.39;56.54;-19881.72;5037092;28;45444;-78
2022/10/27 11:25:21;;;;;;;;;7.75;4.25;;;;;26.55;52.89;-19911.47;5009573;28;45465;-78
2022/10/27 11:27:59;;;;;;;;;7.25;5.25;;;;;27.27;51.18;-19930.09;5024136;28;45920;-78
2022/10/27 11:30:27;;;;;;;;;4.50;3.00;;;;;27.59;50.85;-19938.44;5006457;28;45461;-77
2022/10/27 11:33:18;;;;;;;;;5.00;5.00;;;;;27.94;49.55;-19947.53;5036675;28;45460;-78